Time;durP1;ratioP1;P1;durP2;ratioP2;P2;SDS_P1;SDS_P2;PMS_P1;PMS_P2;Temp;Humidity;BMP_temperature;BMP_pressure;BME280_temperature;BME280_humidity;BME280_pressure;Samples;Min_cycle;Max_cycle;Signal;HPM_P1;HPM_P2
2020/12/20 00:00:54;;;;;;;6.97;6.27;;;13.00;96.70;;;;;;5015761;28;20183;-70
2020/12/20 00:03:20;;;;;;;7.43;6.83;;;13.00;96.70;;;;;;5013651;28;20289;-70
2020/12/20 00:05:46;;;;;;;6.90;6.40;;;13.00;96.90;;;;;;5031847;28;20297;-71
2020/12/20 00:08:12;;;;;;;7.30;6.60;;;13.10;96.70;;;;;;5024684;28;20659;-71
2020/12/20 00:10:37;;;;;;;223.20;120.30;;;13.20;96.60;;;;;;5023407;28;20817;-72
2020/12/20 00:13:03;;;;;;;15.53;12.53;;;13.30;96.50;;;;;;5031169;28;20630;-72
2020/12/20 00:15:29;;;;;;;8.20;7.33;;;13.30;96.30;;;;;;5031194;28;20211;-71
2020/12/20 00:17:54;;;;;;;7.70;7.00;;;13.30;96.10;;;;;;5017853;28;20264;-71
2020/12/20 00:20:20;;;;;;;6.33;5.83;;;13.40;96.10;;;;;;5030988;28;20512;-71
2020/12/20 00:22:47;;;;;;;6.90;6.20;;;13.40;96.00;;;;;;5031542;28;20183;-70
2020/12/20 00:25:13;;;;;;;6.63;6.13;;;13.40;96.10;;;;;;5023078;28;20515;-70
2020/12/20 00:27:39;;;;;;;7.27;6.57;;;13.30;96.00;;;;;;5015471;28;20422;-70
2020/12/20 00:30:06;;;;;;;6.67;6.07;;;13.40;96.10;;;;;;5014036;28;20421;-71
2020/12/20 00:32:32;;;;;;;6.93;5.77;;;13.10;96.60;;;;;;5016633;28;20216;-70
2020/12/20 00:34:58;;;;;;;7.13;6.53;;;13.20;96.60;;;;;;5032533;28;20467;-71
2020/12/20 00:37:23;;;;;;;5.90;5.50;;;13.20;96.50;;;;;;5034282;28;20196;-71
2020/12/20 00:39:49;;;;;;;7.40;6.80;;;13.10;96.50;;;;;;5015548;28;20431;-70
2020/12/20 00:42:15;;;;;;;6.80;6.30;;;12.70;97.20;;;;;;5018389;28;20227;-70
2020/12/20 00:44:41;;;;;;;6.27;5.70;;;12.80;97.40;;;;;;5035334;28;20174;-70
2020/12/20 00:47:07;;;;;;;6.97;6.37;;;12.80;97.60;;;;;;5032960;28;20429;-70
2020/12/20 00:49:33;;;;;;;7.53;6.53;;;12.70;97.70;;;;;;5016962;28;20253;-70
2020/12/20 00:52:02;;;;;;;6.50;6.00;;;12.80;97.70;;;;;;5015005;28;20244;-71
2020/12/20 00:54:29;;;;;;;6.83;6.33;;;12.80;97.50;;;;;;5015323;28;20410;-70
2020/12/20 00:56:55;;;;;;;7.63;6.87;;;12.90;97.50;;;;;;5015355;28;20951;-71
2020/12/20 00:59:22;;;;;;;6.37;5.87;;;13.00;97.40;;;;;;5015578;28;21124;-70
2020/12/20 01:01:48;;;;;;;6.93;5.97;;;13.00;97.20;;;;;;5014823;28;20421;-70
2020/12/20 01:04:14;;;;;;;6.93;6.40;;;13.00;97.20;;;;;;5030867;28;20433;-71
2020/12/20 01:06:39;;;;;;;7.03;6.30;;;13.10;97.20;;;;;;5033110;28;20170;-70
2020/12/20 01:09:06;;;;;;;6.03;5.43;;;13.20;96.90;;;;;;5034033;28;20413;-70
2020/12/20 01:11:32;;;;;;;6.00;5.60;;;13.30;96.80;;;;;;5017008;28;20203;-70
2020/12/20 01:13:58;;;;;;;6.43;5.80;;;13.20;96.70;;;;;;5021055;28;20426;-70
2020/12/20 01:16:26;;;;;;;5.70;5.30;;;13.30;96.60;;;;;;5034519;28;20405;-70
2020/12/20 01:18:53;;;;;;;8.00;5.47;;;13.30;96.50;;;;;;5026292;28;20521;-70
2020/12/20 01:21:19;;;;;;;6.20;5.70;;;13.30;96.50;;;;;;5014056;28;20920;-70
2020/12/20 01:23:45;;;;;;;5.83;5.33;;;13.30;96.40;;;;;;5014973;28;20426;-70
2020/12/20 01:26:11;;;;;;;6.80;6.20;;;13.40;96.40;;;;;;5013602;28;20419;-75
2020/12/20 01:28:38;;;;;;;5.93;5.40;;;13.40;96.40;;;;;;5014779;28;20462;-70
2020/12/20 01:31:05;;;;;;;5.70;5.30;;;13.30;96.20;;;;;;5013679;28;20469;-71
2020/12/20 01:33:33;;;;;;;5.63;5.23;;;13.20;96.50;;;;;;5029597;28;20417;-70
2020/12/20 01:36:03;;;;;;;5.87;5.37;;;13.10;96.90;;;;;;5033833;28;20976;-71
2020/12/20 01:38:29;;;;;;;6.40;5.90;;;13.10;96.80;;;;;;5034391;28;20476;-70
2020/12/20 01:40:55;;;;;;;5.50;4.87;;;13.10;97.00;;;;;;5016540;28;20827;-70
2020/12/20 01:43:21;;;;;;;5.60;5.20;;;13.10;96.90;;;;;;5014854;28;20691;-70
2020/12/20 01:45:46;;;;;;;6.13;5.63;;;13.10;96.90;;;;;;5014280;28;20186;-70
2020/12/20 01:48:13;;;;;;;6.23;5.70;;;13.10;97.20;;;;;;5013630;28;20410;-70
2020/12/20 01:50:39;;;;;;;5.93;5.47;;;13.20;97.10;;;;;;5014439;28;20271;-70
2020/12/20 01:53:05;;;;;;;6.63;6.13;;;13.20;97.00;;;;;;5013174;28;20410;-70
2020/12/20 01:55:32;;;;;;;6.13;5.70;;;13.30;96.80;;;;;;5014249;28;20429;-70
2020/12/20 01:57:58;;;;;;;5.90;5.40;;;13.20;96.80;;;;;;5017251;28;20420;-70
2020/12/20 02:00:24;;;;;;;5.97;5.57;;;13.30;97.00;;;;;;5024338;28;20481;-70
2020/12/20 02:02:50;;;;;;;6.10;5.60;;;13.30;96.80;;;;;;5023252;28;20405;-70
2020/12/20 02:05:16;;;;;;;6.70;6.20;;;13.30;96.80;;;;;;5015323;28;20898;-70
2020/12/20 02:07:42;;;;;;;6.20;5.80;;;13.30;97.10;;;;;;5013979;28;20576;-70
2020/12/20 02:10:08;;;;;;;6.07;5.60;;;13.30;97.00;;;;;;5029012;28;20771;-70
2020/12/20 02:12:34;;;;;;;6.73;6.23;;;13.30;96.90;;;;;;5033331;28;20548;-70
2020/12/20 02:15:00;;;;;;;7.30;6.70;;;13.20;97.00;;;;;;5032635;28;20266;-70
2020/12/20 02:17:26;;;;;;;7.07;6.40;;;13.10;97.10;;;;;;5031299;28;20505;-70
2020/12/20 02:19:51;;;;;;;8.03;7.33;;;13.10;97.40;;;;;;5033513;28;20218;-70
2020/12/20 02:22:17;;;;;;;7.40;6.63;;;13.00;97.40;;;;;;5026575;28;20182;-70
2020/12/20 02:24:43;;;;;;;8.30;7.70;;;12.80;98.10;;;;;;5022171;28;20198;-70
2020/12/20 02:27:09;;;;;;;8.93;7.17;;;12.80;98.30;;;;;;5032102;28;20191;-70
2020/12/20 02:29:35;;;;;;;7.63;6.97;;;12.80;98.20;;;;;;5031854;28;20462;-70
2020/12/20 02:32:01;;;;;;;8.40;7.67;;;12.90;98.20;;;;;;5013576;28;20206;-70
2020/12/20 02:34:27;;;;;;;7.23;6.63;;;12.80;98.10;;;;;;5011573;28;20461;-70
2020/12/20 02:36:53;;;;;;;7.17;6.67;;;12.70;98.20;;;;;;5013673;28;20431;-70
2020/12/20 02:39:19;;;;;;;8.43;7.77;;;12.60;98.60;;;;;;5012692;28;20183;-70
2020/12/20 02:41:45;;;;;;;8.97;8.27;;;12.80;98.70;;;;;;5013464;28;20185;-70
2020/12/20 02:44:10;;;;;;;8.30;7.53;;;12.90;98.30;;;;;;5012609;28;20176;-70
2020/12/20 02:46:36;;;;;;;8.03;7.33;;;12.80;98.20;;;;;;5013417;28;20464;-70
2020/12/20 02:49:02;;;;;;;7.67;7.07;;;12.90;98.30;;;;;;5013179;28;20190;-70
2020/12/20 02:51:28;;;;;;;8.07;7.27;;;12.90;98.00;;;;;;5012105;28;20344;-70
2020/12/20 02:53:54;;;;;;;7.67;6.97;;;12.90;98.10;;;;;;5013330;28;20468;-70
2020/12/20 02:56:22;;;;;;;7.83;7.13;;;13.00;98.00;;;;;;5012014;28;20946;-70
2020/12/20 02:58:48;;;;;;;7.30;6.70;;;13.00;97.90;;;;;;5013222;28;20177;-71
2020/12/20 03:01:14;;;;;;;8.20;7.50;;;12.90;97.80;;;;;;5011726;28;20512;-71
2020/12/20 03:03:40;;;;;;;8.47;7.67;;;12.90;98.00;;;;;;5011773;28;20533;-70
2020/12/20 03:06:06;;;;;;;7.43;6.73;;;12.80;98.40;;;;;;5011282;28;20172;-71
2020/12/20 03:08:31;;;;;;;7.60;6.97;;;12.80;98.40;;;;;;5011488;28;20418;-70
2020/12/20 03:10:57;;;;;;;8.27;7.47;;;12.70;98.40;;;;;;5011635;28;20234;-70
2020/12/20 03:13:23;;;;;;;7.40;6.80;;;12.60;98.90;;;;;;5010762;28;20187;-70
2020/12/20 03:15:48;;;;;;;7.40;6.80;;;12.50;98.90;;;;;;5011527;28;20261;-70
2020/12/20 03:18:14;;;;;;;7.70;7.10;;;12.60;99.20;;;;;;5011703;28;20178;-70
2020/12/20 03:20:40;;;;;;;7.37;6.77;;;12.70;98.90;;;;;;5013167;28;20563;-70
2020/12/20 03:23:06;;;;;;;8.03;7.43;;;12.70;98.80;;;;;;5012681;28;20171;-71
2020/12/20 03:25:32;;;;;;;7.90;7.27;;;12.70;98.80;;;;;;5012793;28;20239;-69
2020/12/20 03:27:59;;;;;;;7.57;6.80;;;12.80;98.70;;;;;;5012819;28;20176;-70
2020/12/20 03:30:26;;;;;;;7.53;6.93;;;12.80;98.60;;;;;;5011618;28;20520;-70
2020/12/20 03:32:51;;;;;;;7.50;6.90;;;12.90;98.50;;;;;;5012652;28;20541;-70
2020/12/20 03:35:17;;;;;;;7.20;6.60;;;12.90;98.50;;;;;;5011757;28;20968;-70
2020/12/20 03:37:49;;;;;;;7.50;6.80;;;12.90;98.50;;;;;;5012674;28;20184;-70
2020/12/20 03:40:15;;;;;;;7.17;6.57;;;12.80;98.60;;;;;;5010403;28;20398;-70
2020/12/20 03:42:41;;;;;;;7.60;7.00;;;12.90;98.60;;;;;;5012607;28;20506;-70
2020/12/20 03:45:07;;;;;;;8.17;7.47;;;12.80;98.70;;;;;;5012157;28;20532;-71
2020/12/20 03:47:32;;;;;;;6.63;6.13;;;12.80;98.70;;;;;;5012285;28;20178;-70
2020/12/20 03:49:58;;;;;;;8.00;7.30;;;12.70;98.90;;;;;;5012478;28;20627;-70
2020/12/20 03:52:24;;;;;;;7.83;7.10;;;12.50;99.30;;;;;;5011345;28;20238;-69
2020/12/20 03:54:49;;;;;;;8.00;7.30;;;12.40;99.70;;;;;;5012500;28;20296;-70
2020/12/20 03:57:15;;;;;;;8.00;7.27;;;12.40;99.50;;;;;;5011536;28;20169;-70
2020/12/20 03:59:41;;;;;;;8.10;7.43;;;12.50;99.60;;;;;;5012213;28;20523;-70
2020/12/20 04:02:07;;;;;;;7.67;6.87;;;12.20;99.90;;;;;;5012084;28;20209;-71
2020/12/20 04:04:33;;;;;;;7.53;6.87;;;12.30;99.90;;;;;;5013965;28;20212;-70
2020/12/20 04:06:59;;;;;;;7.90;7.20;;;12.30;99.90;;;;;;5016318;28;20181;-70
2020/12/20 04:09:24;;;;;;;7.73;7.03;;;12.40;99.90;;;;;;5015551;28;20420;-70
2020/12/20 04:11:50;;;;;;;7.50;7.00;;;12.50;99.80;;;;;;5016090;28;20614;-70
2020/12/20 04:14:16;;;;;;;8.30;7.50;;;12.40;99.70;;;;;;5015554;28;20587;-70
2020/12/20 04:16:41;;;;;;;7.03;6.53;;;12.40;99.90;;;;;;5016006;28;20179;-70
2020/12/20 04:19:07;;;;;;;8.23;6.93;;;12.50;99.80;;;;;;5016060;28;20179;-70
2020/12/20 04:21:33;;;;;;;7.90;7.20;;;12.50;99.70;;;;;;5015517;28;20510;-69
2020/12/20 04:23:58;;;;;;;7.47;6.93;;;12.50;99.60;;;;;;5016083;28;20183;-70
2020/12/20 04:26:24;;;;;;;7.50;6.90;;;12.40;99.80;;;;;;5014108;28;20175;-70
2020/12/20 04:28:50;;;;;;;7.87;7.27;;;12.50;99.80;;;;;;5016032;28;20317;-69
2020/12/20 04:31:16;;;;;;;8.33;7.23;;;12.30;99.90;;;;;;5014864;28;20947;-70
2020/12/20 04:33:41;;;;;;;7.70;7.00;;;12.40;99.90;;;;;;5015926;28;20190;-70
2020/12/20 04:36:07;;;;;;;9.67;7.13;;;12.50;99.80;;;;;;5015951;28;20236;-69
2020/12/20 04:38:34;;;;;;;7.40;6.80;;;12.60;99.50;;;;;;5015178;28;20193;-70
2020/12/20 04:41:01;;;;;;;7.63;6.93;;;12.60;99.30;;;;;;5015838;28;20175;-69
2020/12/20 04:43:27;;;;;;;8.17;7.47;;;12.60;99.40;;;;;;5013736;28;20428;-70
2020/12/20 04:45:54;;;;;;;7.90;7.20;;;12.60;99.30;;;;;;5015724;28;20893;-70
2020/12/20 04:48:20;;;;;;;8.90;8.17;;;12.40;99.70;;;;;;5014874;28;20571;-70
2020/12/20 04:50:47;;;;;;;8.60;7.97;;;12.40;99.80;;;;;;5015526;28;20402;-70
2020/12/20 04:53:13;;;;;;;7.80;7.20;;;12.40;99.70;;;;;;5013129;28;20426;-71
2020/12/20 04:55:39;;;;;;;9.07;7.30;;;12.40;99.80;;;;;;5015610;28;20414;-70
2020/12/20 04:58:05;;;;;;;7.67;7.13;;;12.40;99.90;;;;;;5015478;28;20438;-70
2020/12/20 05:00:31;;;;;;;8.53;7.83;;;12.50;99.90;;;;;;5014139;28;20422;-70
2020/12/20 05:02:57;;;;;;;8.60;7.73;;;12.60;99.70;;;;;;5015392;28;20178;-70
2020/12/20 05:05:23;;;;;;;8.53;7.73;;;12.60;99.80;;;;;;5014593;28;20198;-69
2020/12/20 05:07:50;;;;;;;8.93;8.23;;;12.70;99.60;;;;;;5015331;28;20406;-70
2020/12/20 05:10:16;;;;;;;8.83;8.13;;;12.70;99.30;;;;;;5014420;28;20901;-70
2020/12/20 05:12:41;;;;;;;8.80;8.00;;;12.70;99.40;;;;;;5015097;28;20512;-69
2020/12/20 05:15:22;;;;;;;8.00;7.40;;;12.60;99.30;;;;;;5015104;28;20175;-70
2020/12/20 05:17:48;;;;;;;8.07;7.47;;;12.70;99.40;;;;;;5014799;28;20189;-70
2020/12/20 05:20:33;;;;;;;8.03;7.30;;;12.80;99.20;;;;;;5014507;28;20402;-70
2020/12/20 05:22:59;;;;;;;8.03;7.33;;;12.90;98.90;;;;;;5015067;28;20262;-70
2020/12/20 05:25:25;;;;;;;9.23;7.00;;;12.80;98.90;;;;;;5014172;28;20501;-70
2020/12/20 05:27:50;;;;;;;7.60;7.00;;;12.80;99.10;;;;;;5014981;28;20203;-70
2020/12/20 05:30:17;;;;;;;7.30;6.70;;;12.90;99.00;;;;;;5013816;28;20177;-70
2020/12/20 05:32:45;;;;;;;8.17;7.47;;;12.90;99.00;;;;;;5014731;28;20671;-70
2020/12/20 05:35:15;;;;;;;8.10;7.40;;;12.90;98.80;;;;;;5014692;28;20847;-69
2020/12/20 05:37:43;;;;;;;8.47;7.67;;;12.90;98.80;;;;;;5014674;28;20398;-70
2020/12/20 05:40:15;;;;;;;7.87;7.27;;;12.80;98.90;;;;;;5014720;28;20893;-70
2020/12/20 05:42:53;;;;;;;9.17;8.27;;;12.80;99.00;;;;;;5014294;28;20544;-70
2020/12/20 05:45:20;;;;;;;9.00;8.13;;;12.60;99.10;;;;;;5012652;28;20413;-71
2020/12/20 05:47:45;;;;;;;8.90;8.23;;;12.50;99.50;;;;;;5014581;28;20937;-70
2020/12/20 05:50:12;;;;;;;8.83;8.03;;;12.60;99.50;;;;;;5014699;28;20401;-70
2020/12/20 05:52:39;;;;;;;9.37;8.53;;;12.30;99.90;;;;;;5013930;28;20218;-70
2020/12/20 05:55:14;;;;;;;9.20;8.40;;;12.40;99.90;;;;;;5014344;28;20411;-70
2020/12/20 05:57:40;;;;;;;11.40;8.70;;;12.20;99.90;;;;;;5013694;28;20407;-70
2020/12/20 06:00:07;;;;;;;9.67;8.77;;;12.20;99.90;;;;;;5014129;28;20496;-70
2020/12/20 06:02:33;;;;;;;9.43;8.73;;;12.20;99.90;;;;;;5012127;28;20461;-70
2020/12/20 06:05:01;;;;;;;9.23;8.53;;;12.30;99.90;;;;;;5014189;28;20434;-70
2020/12/20 06:07:28;;;;;;;9.97;9.07;;;12.50;99.90;;;;;;5013358;28;20444;-70
2020/12/20 06:09:56;;;;;;;9.27;8.57;;;12.60;99.90;;;;;;5014110;28;20425;-70
2020/12/20 06:12:24;;;;;;;10.20;9.20;;;12.60;99.60;;;;;;5012981;28;20453;-69
2020/12/20 06:14:51;;;;;;;10.20;9.20;;;12.50;99.70;;;;;;5013970;28;20757;-70
2020/12/20 06:17:23;;;;;;;10.20;9.20;;;12.40;99.90;;;;;;5013557;28;20421;-71
2020/12/20 06:20:04;;;;;;;10.43;9.53;;;12.20;99.90;;;;;;5012591;28;20503;-70
2020/12/20 06:22:32;;;;;;;11.70;10.60;;;12.20;99.90;;;;;;5013140;28;20414;-70
2020/12/20 06:25:00;;;;;;;11.00;9.90;;;12.10;99.90;;;;;;5013689;28;20413;-70
2020/12/20 06:27:28;;;;;;;11.10;10.20;;;11.90;99.90;;;;;;5012483;28;20497;-70
2020/12/20 06:30:04;;;;;;;10.93;9.93;;;11.80;99.90;;;;;;5013492;28;20445;-70
2020/12/20 06:32:38;;;;;;;10.80;9.90;;;11.80;99.90;;;;;;5012677;28;20460;-70
2020/12/20 06:35:15;;;;;;;11.47;10.50;;;11.70;99.90;;;;;;5013585;28;20466;-70
2020/12/20 06:37:43;;;;;;;11.03;10.03;;;11.70;99.90;;;;;;5013024;28;20415;-70
2020/12/20 06:40:11;;;;;;;10.03;9.20;;;11.90;99.90;;;;;;5013640;28;20432;-70
2020/12/20 06:42:39;;;;;;;11.47;10.30;;;12.00;99.90;;;;;;5012706;28;20412;-70
2020/12/20 06:45:21;;;;;;;11.50;10.50;;;12.10;99.90;;;;;;5013363;28;20417;-70
2020/12/20 06:47:52;;;;;;;10.77;9.77;;;12.20;99.90;;;;;;5012230;28;20409;-70
2020/12/20 06:50:47;;;;;;;11.47;10.47;;;12.20;99.90;;;;;;5013149;28;20439;-71
2020/12/20 06:53:15;;;;;;;10.23;9.23;;;12.20;99.90;;;;;;5013460;28;20426;-70
2020/12/20 06:55:41;;;;;;;9.93;9.03;;;12.10;99.90;;;;;;5012817;28;20410;-70
2020/12/20 06:58:10;;;;;;;13.43;9.80;;;12.20;99.90;;;;;;5013289;28;20760;-70
2020/12/20 07:00:49;;;;;;;10.67;9.57;;;12.30;99.90;;;;;;5012154;28;20428;-70
2020/12/20 07:03:20;;;;;;;10.77;9.87;;;12.30;99.90;;;;;;5013259;28;20398;-70
2020/12/20 07:05:48;;;;;;;11.73;10.53;;;12.40;99.90;;;;;;5012988;28;20405;-70
2020/12/20 07:08:30;;;;;;;11.07;10.17;;;12.40;99.90;;;;;;5011875;28;20741;-70
2020/12/20 07:11:01;;;;;;;11.97;11.03;;;12.50;99.90;;;;;;5012922;28;20428;-70
2020/12/20 07:13:38;;;;;;;12.13;10.90;;;12.50;99.90;;;;;;5012256;28;20410;-70
2020/12/20 07:16:09;;;;;;;12.90;11.70;;;12.60;99.90;;;;;;5013237;28;20429;-70
2020/12/20 07:18:55;;;;;;;12.50;11.40;;;12.50;99.80;;;;;;5010443;28;20415;-72
2020/12/20 07:21:24;;;;;;;11.93;10.80;;;12.50;99.90;;;;;;5014440;28;20928;-71
2020/12/20 07:23:54;;;;;;;11.77;10.57;;;12.40;99.90;;;;;;5032649;28;20919;-71
2020/12/20 07:26:21;;;;;;;11.23;10.17;;;12.30;99.90;;;;;;5015748;28;20446;-72
2020/12/20 07:28:46;;;;;;;12.80;11.70;;;12.30;99.90;;;;;;5016796;28;20419;-71
2020/12/20 07:31:14;;;;;;;12.33;11.13;;;12.40;99.90;;;;;;5018871;28;20920;-71
2020/12/20 07:33:41;;;;;;;14.20;11.10;;;12.50;99.90;;;;;;5011799;28;20505;-71
2020/12/20 07:36:07;;;;;;;11.40;10.40;;;12.50;99.90;;;;;;5029289;28;20956;-71
2020/12/20 07:38:32;;;;;;;11.90;10.67;;;12.60;99.90;;;;;;5011100;28;20430;-72
2020/12/20 07:40:58;;;;;;;11.37;10.27;;;12.60;99.90;;;;;;5012595;28;20294;-72
2020/12/20 07:43:24;;;;;;;11.17;10.10;;;12.70;99.80;;;;;;5011806;28;20190;-71
2020/12/20 07:46:03;;;;;;;11.33;10.33;;;12.70;99.40;;;;;;5012333;28;20250;-72
2020/12/20 07:48:29;;;;;;;11.67;10.67;;;12.70;99.20;;;;;;4991908;28;20167;-72
2020/12/20 07:51:16;;;;;;;11.60;10.40;;;12.40;99.70;;;;;;4993100;28;20465;-71
2020/12/20 07:53:53;;;;;;;12.53;11.37;;;12.30;99.90;;;;;;5023154;28;20779;-72
2020/12/20 07:56:28;;;;;;;11.93;10.83;;;12.30;99.90;;;;;;5032233;28;20394;-72
2020/12/20 07:58:58;;;;;;;11.90;10.80;;;12.40;99.90;;;;;;5017733;28;20905;-72
2020/12/20 08:01:24;;;;;;;10.97;9.80;;;12.50;99.90;;;;;;5013969;28;21044;-72
2020/12/20 08:04:03;;;;;;;10.97;9.97;;;12.40;99.90;;;;;;5017675;28;20467;-71
2020/12/20 08:06:29;;;;;;;11.30;10.10;;;12.50;99.90;;;;;;5014437;28;20425;-72
2020/12/20 08:09:03;;;;;;;10.47;9.50;;;12.60;99.90;;;;;;5030396;28;20420;-81
2020/12/20 08:11:30;;;;;;;11.40;10.43;;;12.60;99.90;;;;;;5020474;28;20456;-72
2020/12/20 08:14:06;;;;;;;11.40;10.07;;;12.70;99.80;;;;;;5021252;28;20928;-71
2020/12/20 08:16:34;;;;;;;11.63;10.50;;;12.70;99.70;;;;;;4990511;28;20858;-72
2020/12/20 08:19:20;;;;;;;10.50;9.60;;;12.80;99.80;;;;;;4992645;28;20424;-72
2020/12/20 08:22:11;;;;;;;10.60;9.60;;;12.80;99.20;;;;;;4990530;28;20920;-76
2020/12/20 08:24:41;;;;;;;10.80;9.80;;;12.90;99.90;;;;;;5016927;28;20427;-75
2020/12/20 08:27:16;;;;;;;10.20;9.40;;;13.20;99.90;;;;;;5031796;28;20496;-75
2020/12/20 08:29:46;;;;;;;10.50;9.60;;;13.70;99.90;;;;;;5028817;28;20470;-75
2020/12/20 08:32:17;;;;;;;9.53;8.70;;;14.00;99.90;;;;;;5012123;28;20453;-75
2020/12/20 08:34:43;;;;;;;10.00;9.10;;;14.40;99.90;;;;;;5010968;28;20461;-75
2020/12/20 08:37:32;;;;;;;9.63;8.93;;;14.80;99.50;;;;;;5012150;28;20429;-75
2020/12/20 08:40:16;;;;;;;10.63;9.80;;;15.10;99.40;;;;;;5012426;28;20889;-75
2020/12/20 08:42:43;;;;;;;9.77;8.97;;;15.50;97.30;;;;;;5011348;28;20452;-75
2020/12/20 08:45:20;;;;;;;10.70;9.80;;;15.80;97.10;;;;;;5011971;28;20414;-75
2020/12/20 08:47:46;;;;;;;10.67;9.63;;;16.00;96.20;;;;;;5027475;28;20562;-77
2020/12/20 08:50:15;;;;;;;10.03;9.13;;;16.30;96.30;;;;;;5032835;28;20408;-76
2020/12/20 08:52:41;;;;;;;10.43;9.50;;;16.50;97.00;;;;;;4994818;28;20842;-75
2020/12/20 08:55:08;;;;;;;11.30;10.30;;;16.70;95.60;;;;;;5005630;28;20429;-75
2020/12/20 08:57:35;;;;;;;9.53;8.73;;;16.90;94.70;;;;;;5014710;28;20262;-75
2020/12/20 09:00:14;;;;;;;10.30;9.40;;;16.80;91.50;;;;;;5014920;28;20839;-75
2020/12/20 09:02:41;;;;;;;9.70;8.90;;;16.70;93.80;;;;;;5014497;28;20805;-75
2020/12/20 09:05:17;;;;;;;10.37;9.40;;;16.80;92.50;;;;;;5015424;28;20462;-75
2020/12/20 09:07:44;;;;;;;9.67;8.80;;;16.90;91.90;;;;;;5013324;28;20814;-75
2020/12/20 09:10:18;;;;;;;10.43;9.57;;;17.00;92.80;;;;;;5015507;28;20421;-75
2020/12/20 09:12:50;;;;;;;11.30;10.30;;;17.10;92.60;;;;;;5014151;28;21237;-75
2020/12/20 09:15:17;;;;;;;11.47;10.50;;;17.40;92.00;;;;;;5015566;28;20785;-75
2020/12/20 09:17:45;;;;;;;10.87;9.87;;;18.00;91.00;;;;;;5014430;28;20475;-75
2020/12/20 09:20:14;;;;;;;12.53;11.43;;;18.50;90.10;;;;;;5013018;28;20426;-74
2020/12/20 09:22:45;;;;;;;11.30;10.40;;;18.80;87.90;;;;;;5010406;28;20414;-75
2020/12/20 09:25:13;;;;;;;11.03;10.20;;;18.80;86.40;;;;;;5015178;28;20430;-74
2020/12/20 09:27:51;;;;;;;14.23;12.93;;;18.90;86.10;;;;;;5013569;28;20422;-76
2020/12/20 09:30:17;;;;;;;10.73;9.83;;;19.00;84.50;;;;;;5009847;28;20414;-75
2020/12/20 09:32:42;;;;;;;10.03;9.20;;;18.50;87.40;;;;;;5012563;28;20448;-75
2020/12/20 09:35:09;;;;;;;194.90;130.13;;;18.80;85.10;;;;;;5013083;28;20223;-75
2020/12/20 09:37:39;;;;;;;23.30;20.53;;;19.10;84.20;;;;;;5012283;28;20510;-75
2020/12/20 09:40:05;;;;;;;9.63;8.73;;;19.20;85.20;;;;;;5015916;28;20813;-75
2020/12/20 09:42:41;;;;;;;155.00;97.13;;;19.30;81.40;;;;;;5012087;28;20449;-76
2020/12/20 09:45:08;;;;;;;88.87;66.90;;;19.30;81.90;;;;;;5012541;28;20936;-76
2020/12/20 09:47:39;;;;;;;10.80;9.80;;;19.00;82.80;;;;;;5015257;28;20474;-75
2020/12/20 09:50:06;;;;;;;8.80;8.00;;;19.30;80.80;;;;;;5012171;28;20422;-75
2020/12/20 09:52:32;;;;;;;8.03;7.40;;;19.60;81.60;;;;;;5012060;28;20473;-75
2020/12/20 09:54:59;;;;;;;9.40;8.60;;;19.90;80.20;;;;;;5012857;28;20414;-74
2020/12/20 09:57:25;;;;;;;9.03;8.33;;;19.90;78.90;;;;;;5012286;28;20410;-75
2020/12/20 09:59:51;;;;;;;8.97;8.07;;;19.80;79.90;;;;;;5012722;28;20517;-76
2020/12/20 10:02:17;;;;;;;8.40;7.70;;;19.50;79.00;;;;;;5012505;28;20513;-76
2020/12/20 10:04:42;;;;;;;8.10;7.40;;;19.50;80.00;;;;;;5014517;28;20635;-76
2020/12/20 10:07:08;;;;;;;8.50;7.80;;;19.10;80.30;;;;;;5013237;28;20185;-76
2020/12/20 10:09:34;;;;;;;8.40;7.70;;;19.10;82.00;;;;;;5011665;28;20179;-74
2020/12/20 10:11:59;;;;;;;7.97;7.17;;;18.90;82.70;;;;;;5013242;28;20221;-74
2020/12/20 10:14:25;;;;;;;8.73;8.03;;;18.90;80.50;;;;;;5029320;28;20277;-75
2020/12/20 10:16:53;;;;;;;8.10;7.50;;;18.80;82.00;;;;;;5014057;28;20646;-76
2020/12/20 10:19:19;;;;;;;8.37;7.50;;;19.70;81.40;;;;;;5012556;28;20214;-76
2020/12/20 10:21:51;;;;;;;7.63;7.03;;;20.80;76.30;;;;;;5012421;28;20427;-76
2020/12/20 10:24:19;;;;;;;7.63;7.03;;;21.70;72.70;;;;;;5012546;28;20414;-76
2020/12/20 10:26:45;;;;;;;6.93;6.47;;;22.60;70.50;;;;;;5009075;28;20414;-77
2020/12/20 10:29:14;;;;;;;7.30;6.80;;;23.20;67.50;;;;;;5012388;28;20417;-76
2020/12/20 10:31:44;;;;;;;7.87;7.27;;;23.20;63.40;;;;;;5012617;28;20453;-77
2020/12/20 10:34:10;;;;;;;7.60;7.00;;;23.10;65.10;;;;;;5013416;28;20417;-75
2020/12/20 10:36:37;;;;;;;7.50;6.90;;;22.50;64.10;;;;;;5013001;28;20414;-76
2020/12/20 10:39:05;;;;;;;7.50;6.90;;;22.20;64.60;;;;;;5017898;28;20425;-72
2020/12/20 10:41:37;;;;;;;7.10;6.60;;;21.60;68.90;;;;;;5013800;28;20433;-74
2020/12/20 10:44:05;;;;;;;7.67;7.07;;;21.20;68.50;;;;;;5028231;28;20893;-74
2020/12/20 10:46:33;;;;;;;7.47;6.97;;;20.50;72.00;;;;;;5032416;28;20416;-75
2020/12/20 10:48:59;;;;;;;7.53;6.90;;;20.50;71.40;;;;;;5019784;28;20477;-75
2020/12/20 10:51:25;;;;;;;7.40;6.83;;;20.50;71.20;;;;;;5028395;28;20461;-74
2020/12/20 10:53:52;;;;;;;8.77;7.77;;;20.50;71.70;;;;;;5030575;28;20536;-75
2020/12/20 10:56:18;;;;;;;7.37;6.77;;;20.80;70.60;;;;;;5030249;28;20493;-75
2020/12/20 10:58:48;;;;;;;6.60;6.10;;;20.80;70.90;;;;;;5012117;28;20415;-75
2020/12/20 11:01:21;;;;;;;250.40;199.27;;;20.80;72.00;;;;;;5016127;28;20825;-74
2020/12/20 11:03:48;;;;;;;28.30;22.93;;;20.80;70.30;;;;;;5013835;28;20438;-74
2020/12/20 11:06:20;;;;;;;10.50;9.50;;;20.50;71.30;;;;;;5012480;28;20410;-74
2020/12/20 11:08:47;;;;;;;7.03;6.37;;;20.50;72.00;;;;;;5012204;28;20410;-74
2020/12/20 11:11:14;;;;;;;6.83;6.33;;;20.40;71.70;;;;;;5013110;28;20461;-74
2020/12/20 11:13:43;;;;;;;7.87;7.17;;;19.70;70.00;;;;;;5011642;28;20937;-75
2020/12/20 11:16:18;;;;;;;6.63;5.73;;;19.40;75.60;;;;;;5012458;28;20968;-75
2020/12/20 11:18:47;;;;;;;6.47;5.97;;;19.10;73.50;;;;;;5012096;28;20410;-74
2020/12/20 11:21:17;;;;;;;6.07;5.57;;;18.40;74.60;;;;;;5011480;28;20418;-75
2020/12/20 11:23:43;;;;;;;8.07;6.40;;;17.80;76.00;;;;;;5012019;28;20879;-75
2020/12/20 11:26:10;;;;;;;219.63;134.50;;;17.20;78.40;;;;;;5012827;28;20886;-75
2020/12/20 11:28:36;;;;;;;290.33;208.20;;;17.00;81.10;;;;;;5011822;28;20498;-75
2020/12/20 11:31:02;;;;;;;12.97;9.03;;;16.70;81.40;;;;;;5012779;28;20493;-74
2020/12/20 11:33:28;;;;;;;6.50;6.00;;;16.60;82.20;;;;;;5012728;28;20412;-74
2020/12/20 11:35:53;;;;;;;5.77;5.37;;;16.20;82.30;;;;;;5009893;28;20279;-75
2020/12/20 11:38:19;;;;;;;6.43;5.50;;;15.90;84.10;;;;;;5010402;28;20525;-79
2020/12/20 11:40:45;;;;;;;6.33;5.83;;;15.90;85.00;;;;;;5008877;28;20223;-77
2020/12/20 11:43:10;;;;;;;6.50;5.83;;;15.60;85.70;;;;;;5016250;28;20725;-79
2020/12/20 11:45:36;;;;;;;6.63;5.30;;;15.50;86.80;;;;;;5011818;28;20176;-82
2020/12/20 11:48:02;;;;;;;6.40;4.93;;;15.30;87.40;;;;;;5012771;28;20277;-80
2020/12/20 11:50:27;;;;;;;9.90;6.70;;;15.20;88.40;;;;;;5013617;28;20562;-74
2020/12/20 11:52:53;;;;;;;7.93;6.40;;;15.00;88.40;;;;;;5011750;28;20214;-73
2020/12/20 11:55:19;;;;;;;7.30;5.80;;;14.90;89.50;;;;;;5011580;28;20190;-75
2020/12/20 11:57:45;;;;;;;5.90;5.30;;;14.80;90.10;;;;;;5010431;28;20186;-76
2020/12/20 12:00:10;;;;;;;6.37;5.77;;;14.80;90.30;;;;;;5008860;28;20660;-73
2020/12/20 12:02:36;;;;;;;5.43;4.93;;;14.70;90.70;;;;;;5004468;28;20201;-73
2020/12/20 12:05:02;;;;;;;5.90;5.30;;;14.60;90.80;;;;;;5012297;28;20261;-74
2020/12/20 12:07:29;;;;;;;5.60;5.20;;;14.50;90.80;;;;;;5012177;28;20178;-73
2020/12/20 12:09:55;;;;;;;6.10;5.50;;;14.40;91.20;;;;;;5012816;28;20418;-74
2020/12/20 12:12:20;;;;;;;74.47;46.03;;;14.40;91.40;;;;;;5031812;28;20458;-73
2020/12/20 12:14:46;;;;;;;92.47;64.07;;;14.40;91.70;;;;;;5021633;28;20188;-73
2020/12/20 12:17:12;;;;;;;36.30;28.60;;;14.40;91.90;;;;;;4988490;28;20182;-74
2020/12/20 12:19:38;;;;;;;7.37;6.53;;;14.40;92.00;;;;;;5011815;28;20606;-76
2020/12/20 12:22:03;;;;;;;7.53;5.83;;;14.40;91.80;;;;;;5014760;28;20607;-75
2020/12/20 12:24:29;;;;;;;6.53;5.90;;;14.30;91.90;;;;;;5015637;28;20263;-75
2020/12/20 12:26:55;;;;;;;6.37;5.87;;;14.10;92.30;;;;;;5014352;28;20272;-75
2020/12/20 12:29:20;;;;;;;7.47;6.17;;;14.00;93.00;;;;;;5015923;28;20189;-75
2020/12/20 12:31:47;;;;;;;6.70;5.97;;;14.10;93.10;;;;;;5003088;28;21630;-75
2020/12/20 12:34:12;;;;;;;7.27;5.80;;;14.10;93.00;;;;;;5014888;28;20213;-75
2020/12/20 12:36:38;;;;;;;9.80;6.53;;;14.20;93.00;;;;;;5015306;28;20804;-75
2020/12/20 12:39:06;;;;;;;6.73;6.13;;;14.30;92.90;;;;;;5015938;28;20197;-75
2020/12/20 12:41:32;;;;;;;613.50;452.83;;;14.30;92.90;;;;;;5014952;28;20182;-75
2020/12/20 12:43:58;;;;;;;210.07;141.73;;;14.30;93.20;;;;;;5012294;28;20998;-75